Time;durP1;ratioP1;P1;durP2;ratioP2;P2;SDS_P1;SDS_P2;PMS_P1;PMS_P2;Temp;Humidity;BMP_temperature;BMP_pressure;BME280_temperature;BME280_humidity;BME280_pressure;Samples;Min_cycle;Max_cycle;Signal;HPM_P1;HPM_P2
2021/10/27 00:06:31;;;;;;;18.60;13.70;;;;;;;7.46;72.51;100134.23;473440;1190;143276;-60
2021/10/27 00:16:37;;;;;;;21.40;15.60;;;;;;;7.52;72.45;100130.84;472278;1190;141100;-59
2021/10/27 00:26:43;;;;;;;18.50;14.20;;;;;;;7.38;72.43;100129.16;475930;1190;141099;-60
2021/10/27 00:36:49;;;;;;;19.80;14.90;;;;;;;7.08;72.57;100142.73;470822;1190;141326;-59
2021/10/27 00:47:04;;;;;;;22.20;16.50;;;;;;;6.63;72.89;100139.45;465165;1190;141950;-57
2021/10/27 00:57:10;;;;;;;20.20;16.20;;;;;;;6.21;73.39;100154.42;465340;1190;141028;-60
2021/10/27 01:07:17;;;;;;;22.90;18.90;;;;;;;5.92;73.75;100156.85;473358;1190;143989;-60
2021/10/27 01:17:23;;;;;;;22.50;16.90;;;;;;;5.67;74.46;100165.15;477629;1190;142361;-57
2021/10/27 01:27:31;;;;;;;26.30;19.00;;;;;;;5.40;74.44;100167.79;477690;1190;211059;-60
2021/10/27 01:37:39;;;;;;;24.50;18.10;;;;;;;5.14;74.70;100165.88;474487;1190;141179;-59
2021/10/27 01:47:46;;;;;;;25.60;19.30;;;;;;;4.91;75.06;100172.31;469040;1190;142410;-59
2021/10/27 01:57:52;;;;;;;25.30;18.60;;;;;;;4.67;75.25;100170.27;477825;1190;142341;-60
2021/10/27 02:07:58;;;;;;;21.90;18.60;;;;;;;4.37;75.64;100166.80;477536;1190;141753;-60
2021/10/27 02:18:04;;;;;;;23.10;17.50;;;;;;;4.21;75.84;100173.15;459972;1190;149759;-59
2021/10/27 02:28:10;;;;;;;25.50;20.70;;;;;;;4.03;76.14;100178.31;459994;1191;142062;-58
2021/10/27 02:38:16;;;;;;;28.90;21.00;;;;;;;3.83;76.75;100166.39;463453;1187;141734;-59
2021/10/27 02:48:22;;;;;;;27.30;19.10;;;;;;;3.67;76.86;100172.36;467747;1190;142021;-60
2021/10/27 02:58:28;;;;;;;29.30;22.10;;;;;;;3.52;76.89;100174.98;477901;1190;142171;-60
2021/10/27 03:08:34;;;;;;;26.10;21.00;;;;;;;3.41;77.30;100181.30;477083;1190;141467;-59
2021/10/27 03:18:40;;;;;;;26.20;19.40;;;;;;;3.33;77.33;100187.23;470783;1190;141376;-59
2021/10/27 03:28:47;;;;;;;31.40;22.10;;;;;;;3.25;77.62;100195.02;477116;1189;143021;-60
2021/10/27 03:38:53;;;;;;;28.30;19.70;;;;;;;3.19;77.92;100201.23;467072;1177;141076;-62
2021/10/27 03:49:00;;;;;;;31.30;21.20;;;;;;;3.09;78.07;100204.58;469255;1190;141544;-59
2021/10/27 03:59:06;;;;;;;28.90;22.40;;;;;;;3.03;78.69;100214.39;473952;1190;141680;-59
2021/10/27 04:09:13;;;;;;;32.80;24.60;;;;;;;3.02;78.87;100221.86;460586;1190;141519;-58
2021/10/27 04:19:19;;;;;;;32.90;24.90;;;;;;;2.96;79.02;100228.02;469522;1190;140922;-59
2021/10/27 04:29:25;;;;;;;30.50;23.50;;;;;;;2.79;78.81;100236.17;472000;1190;141974;-57
2021/10/27 04:39:31;;;;;;;32.20;24.10;;;;;;;2.69;78.99;100239.33;473318;1190;142481;-60
2021/10/27 04:49:37;;;;;;;31.80;24.10;;;;;;;2.65;79.32;100242.02;477851;1189;142130;-60
2021/10/27 04:59:44;;;;;;;27.10;21.50;;;;;;;2.61;79.46;100234.15;473283;1177;146035;-58
2021/10/27 05:09:50;;;;;;;37.20;25.60;;;;;;;2.52;79.41;100228.80;477948;1190;141575;-59
2021/10/27 05:19:57;;;;;;;31.10;22.60;;;;;;;2.46;79.56;100225.63;477913;1189;140759;-59
2021/10/27 05:30:05;;;;;;;32.50;24.70;;;;;;;2.49;79.82;100228.50;477076;1190;141876;-59
2021/10/27 05:40:12;;;;;;;38.50;26.00;;;;;;;2.81;80.36;100218.00;477734;1190;142322;-59
2021/10/27 05:50:27;;;;;;;44.90;30.20;;;;;;;3.19;80.00;100229.42;467784;1190;144045;-59
2021/10/27 06:00:34;;;;;;;41.10;30.80;;;;;;;3.79;79.88;100248.58;477823;1190;141864;-59
2021/10/27 06:10:40;;;;;;;40.90;28.00;;;;;;;4.35;79.13;100261.33;477731;1190;140796;-61
2021/10/27 06:20:47;;;;;;;43.60;27.80;;;;;;;4.59;78.20;100266.91;467651;1190;142273;-61
2021/10/27 06:30:56;;;;;;;37.60;24.10;;;;;;;5.29;78.67;100282.50;469328;1190;141747;-60
2021/10/27 06:51:25;;;;;;;23.30;17.30;;;;;;;12.27;71.72;100272.95;463500;1190;141349;-61
2021/10/27 07:01:40;;;;;;;25.10;15.90;;;;;;;15.12;66.45;100284.04;467995;1190;152611;-62
2021/10/27 07:22:13;;;;;;;17.90;13.40;;;;;;;19.91;57.93;100288.36;467924;1190;142485;-60
2021/10/27 07:32:22;;;;;;;15.50;13.90;;;;;;;22.30;53.08;100286.98;477808;1189;140502;-62
2021/10/27 07:42:29;;;;;;;18.90;16.80;;;;;;;23.78;49.70;100289.17;473509;1190;141483;-62
2021/10/27 07:52:35;;;;;;;14.50;13.20;;;;;;;25.43;46.32;100279.87;477818;1190;140797;-62
2021/10/27 08:02:41;;;;;;;15.70;14.00;;;;;;;25.79;43.44;100272.39;463511;1190;142277;-61
2021/10/27 08:12:49;;;;;;;20.20;13.00;;;;;;;23.70;43.21;100266.84;461148;1190;140131;-62
2021/10/27 08:22:58;;;;;;;12.70;11.10;;;;;;;24.62;41.91;100268.29;461933;1190;143013;-60
2021/10/27 08:33:05;;;;;;;14.90;13.40;;;;;;;24.45;40.74;100273.65;461485;1190;142512;-60
2021/10/27 08:43:12;;;;;;;14.70;12.10;;;;;;;23.89;40.34;100280.67;461863;1190;142506;-60
2021/10/27 08:53:21;;;;;;;13.10;11.40;;;;;;;24.39;39.42;100288.47;461868;1190;145901;-60
2021/10/27 09:03:38;;;;;;;12.30;11.00;;;;;;;24.44;38.98;100284.75;467822;1190;144838;-60
2021/10/27 10:05:59;;;;;;;11.60;10.30;;;;;;;15.33;48.62;100283.14;476742;1189;142352;-63
2021/10/27 10:16:06;;;;;;;14.40;9.90;;;;;;;14.78;50.08;100284.92;470227;1190;141001;-63
2021/10/27 10:26:13;;;;;;;15.20;9.00;;;;;;;14.52;51.38;100299.03;477833;1189;140676;-63
2021/10/27 10:36:33;;;;;;;10.10;8.20;;;;;;;14.54;51.91;100293.98;468869;1190;141570;-63
2021/10/27 10:57:44;;;;;;;9.80;8.20;;;;;;;15.19;51.99;100284.16;462868;1190;141092;-62
2021/10/27 11:49:35;;;;;;;11.10;5.90;;;;;;;14.70;53.21;100255.48;463689;1190;146076;-60
2021/10/27 11:59:46;;;;;;;9.70;5.60;;;;;;;14.86;53.35;100254.91;452845;1190;10001506;-67
2021/10/27 12:10:10;;;;;;;10.60;5.80;;;;;;;15.04;53.00;100249.76;475159;1189;142478;-66
2021/10/27 12:20:28;;;;;;;7.70;5.30;;;;;;;14.84;52.97;100243.65;477768;1190;141760;-62
2021/10/27 12:30:45;;;;;;;7.50;4.50;;;;;;;14.75;53.17;100235.96;477873;1189;141444;-58
2021/10/27 12:41:00;;;;;;;7.90;4.90;;;;;;;14.67;53.03;100222.26;477821;1189;141796;-58
2021/10/27 12:51:09;;;;;;;6.90;4.90;;;;;;;14.44;53.38;100210.80;471631;1190;141075;-63
2021/10/27 13:01:31;;;;;;;5.30;4.00;;;;;;;14.46;53.65;100215.05;460789;1190;140980;-63
2021/10/27 13:22:13;;;;;;;5.20;3.90;;;;;;;14.43;53.59;100207.01;465805;1190;141394;-61
2021/10/27 13:32:24;;;;;;;8.50;3.30;;;;;;;14.47;53.14;100219.02;471557;1190;144980;-61
2021/10/27 13:42:36;;;;;;;6.80;3.50;;;;;;;14.40;53.16;100225.50;475136;1189;140299;-62
2021/10/27 14:13:45;;;;;;;7.20;3.80;;;;;;;14.05;53.66;100239.70;464436;1190;140776;-70
2021/10/27 15:37:06;;;;;;;17.10;8.70;;;;;;;11.80;58.36;100218.48;472112;1189;140714;-71
2021/10/27 15:57:36;;;;;;;19.30;10.30;;;;;;;10.95;59.89;100205.09;477718;1189;141238;-67
2021/10/27 16:07:46;;;;;;;20.60;12.50;;;;;;;10.87;60.66;100199.91;472189;1190;142360;-61
2021/10/27 16:17:53;;;;;;;20.60;15.90;;;;;;;10.97;61.14;100208.48;466958;1190;143476;-66
2021/10/27 16:28:00;;;;;;;18.90;15.40;;;;;;;11.05;61.40;100217.67;476741;1190;141564;-65
2021/10/27 16:38:07;;;;;;;23.10;19.80;;;;;;;11.12;61.72;100221.64;477782;1190;141840;-63
2021/10/27 16:48:13;;;;;;;21.50;16.00;;;;;;;11.09;62.23;100226.91;476996;1190;142357;-64
2021/10/27 16:58:19;;;;;;;20.60;15.10;;;;;;;11.03;62.63;100235.65;477911;1190;143519;-70
2021/10/27 17:08:26;;;;;;;16.90;13.80;;;;;;;10.99;63.07;100251.83;477071;1190;142114;-69
2021/10/27 17:18:38;;;;;;;19.50;14.50;;;;;;;10.97;63.27;100252.27;477904;1190;141751;-70
2021/10/27 17:28:45;;;;;;;26.50;22.60;;;;;;;10.91;63.43;100263.44;471435;1190;141514;-71
2021/10/27 17:38:51;;;;;;;27.40;17.80;;;;;;;10.72;63.76;100267.98;462011;1190;141631;-69
2021/10/27 17:49:00;;;;;;;26.10;17.50;;;;;;;10.52;64.05;100278.67;476572;1190;142460;-72
2021/10/27 17:59:09;;;;;;;26.10;17.40;;;;;;;10.39;64.50;100284.88;446649;1190;10001781;-71
2021/10/27 18:09:15;;;;;;;22.10;15.60;;;;;;;10.37;64.72;100298.10;475803;1190;144679;-70
2021/10/27 18:19:30;;;;;;;33.40;16.30;;;;;;;10.35;64.82;100298.22;466981;1190;143115;-71
2021/10/27 18:40:08;;;;;;;30.20;21.10;;;;;;;10.09;65.39;100295.19;473486;1190;142293;-64
2021/10/27 18:50:16;;;;;;;28.30;17.90;;;;;;;9.96;65.76;100291.96;477698;1189;142441;-64
2021/10/27 19:00:29;;;;;;;29.90;17.00;;;;;;;9.89;65.91;100301.76;471531;1190;144956;-65
2021/10/27 19:10:44;;;;;;;41.80;23.20;;;;;;;9.98;66.11;100305.87;461781;1190;141226;-64
2021/10/27 19:20:52;;;;;;;55.10;26.60;;;;;;;10.05;66.24;100316.86;466119;1190;142168;-64
2021/10/27 19:31:15;;;;;;;;;;;;;;;10.16;66.28;100306.92;477915;1189;142033;-64
2021/10/27 20:13:14;;;;;;;20.30;14.90;;;;;;;10.16;67.06;100305.66;473439;1190;141473;-63
2021/10/27 20:54:27;;;;;;;26.70;13.60;;;;;;;10.30;67.74;100303.36;472609;1190;141125;-62
2021/10/27 21:04:50;;;;;;;21.20;13.70;;;;;;;10.32;67.88;100300.70;464856;1190;141374;-63
2021/10/27 21:14:57;;;;;;;12.80;10.50;;;;;;;10.33;68.05;100313.19;471844;1190;142169;-62
2021/10/27 21:25:05;;;;;;;12.40;10.00;;;;;;;10.43;68.00;100322.70;468375;1190;142479;-62
2021/10/27 21:45:43;;;;;;;10.30;8.10;;;;;;;10.53;68.44;100330.77;473391;1189;142630;-62
2021/10/27 21:55:53;;;;;;;14.80;9.70;;;;;;;10.58;68.41;100332.61;477540;1189;142585;-62
2021/10/27 22:05:59;;;;;;;10.80;8.80;;;;;;;10.63;68.44;100340.76;460993;1190;141754;-63
2021/10/27 22:16:06;;;;;;;13.50;8.60;;;;;;;10.65;68.53;100336.61;477867;1190;142022;-61
2021/10/27 22:26:12;;;;;;;11.00;8.00;;;;;;;10.66;68.69;100335.34;463808;1190;141449;-61
2021/10/27 22:36:19;;;;;;;10.50;7.80;;;;;;;10.63;68.84;100332.55;463054;1190;145721;-60
2021/10/27 22:46:25;;;;;;;8.70;7.40;;;;;;;10.61;69.06;100329.14;475164;1190;142821;-60
2021/10/27 22:56:31;;;;;;;7.50;6.50;;;;;;;10.60;69.16;100333.02;475957;1189;145791;-59
2021/10/27 23:06:40;;;;;;;8.30;6.40;;;;;;;10.62;69.27;100330.67;455411;1190;10143019;-62
2021/10/27 23:48:09;;;;;;;13.90;11.70;;;;;;;10.49;69.54;100334.83;459794;1191;141388;-67
2021/10/27 23:58:30;;;;;;;15.30;12.00;;;;;;;10.38;69.77;100336.09;463330;1190;141962;-65
